Pagrindinis puslapis
METAR-TAF:

METAR-TAF

Oro uostai :

Džordžtaunas, Dangun Žengimo sala

platuma: 07-58S, ilguma: 014-24W, Aukštis: 86 m

METAR: trūkstamas

Laikas: 23:25 (23:25 UTC)

Prognozė

Ataskaita buvo paskelbta 39 valandos ir 55 minutes, ne 07:30 UTC
Prognozė galioja nuo 20 metu 09 UTC su 21 metu 03 UTC
Vėjas 15 kt iš Pietryčių
Matomumas 10 km arba daugiau
Mažai debesys ne aukštis 1800 ft
Tikimybė 30% :
Laikinai
nuo 20 metu 09 UTC su 20 metu 11 UTC
Išsisklaidę debesys ne aukštis 1800 ft

TAF: FHAW 200730Z 2009/2103 14015KT 9999 FEW018 PROB30 TEMPO 2009/2011 SCT018

Orai ataskaitas ir orų prognozės (METAR, TAF).

turimą stotys yra geltonos ir raudonos taškus žemėlapyje.

Perkelti pele per norėdami pamatyti stoties vardą.

Tada spustelėkite, norėdami matyti oro stebėjimo ir prognozės.

Norėdami pakeisti žemėlapį: spustelėkite ant žalios mygtukų su juodo kryžiaus žemyn,; žalią mygtuką su brūkšneliu, jei norite nutolinti; arba žalių rodyklių gretimoms žemėlapius.


METAR-TAF: